Nearby METAR Reports

 

EDNY - Friedrichshafen, Germany
Distance from station: O 31km
aktuell: 03.08.2015 14:50
klar
klar
 Wind von varies
Wind: varies 7 km/h
Temperatur: 28°C
Taupunkt: 11°C
Luftfeuchte: 35%
Luftdruck: 1018 hPa
Zusammenfassung: klar
Visibility: greater than 10 km
2015/08/03 12:50 EDNY 031250Z VRB04KT CAVOK 28/11 Q1018 RMK ATIS R
LSZR - Rheineck/Altenrh, Switzerland
Distance from station: SO 42km
aktuell: 03.08.2015 14:50
klar
klar
 Wind von NNW
Wind: NNW 7 km/h
Temperatur: 27°C
Heat Index: 28°C
Taupunkt: 16°C
Luftfeuchte: 51%
Luftdruck: 1018 hPa
Zusammenfassung: klar
Visibility: greater than 10 km
2015/08/03 12:50 LSZR 031250Z 34004KT CAVOK 27/16 Q1018 NOSIG RMK J
LSZH - Zurich-Kloten (a, Switzerland
Distance from station: WSW 49km
aktuell: 03.08.2015 14:50
Few Clouds
Few Clouds
 Wind von WSW
Wind: WSW 15 km/h
Temperatur: 30°C
Taupunkt: 12°C
Luftfeuchte: 33%
Luftdruck: 1018 hPa
Clouds: Few Clouds
Visibility: 10 km
Cloud details: Few Clouds 2134 m
2015/08/03 12:50 LSZH 031250Z 24008KT 220V280 9999 FEW070 30/12 Q1018 NOSIG
 
EDTD - Donaueschingen, Germany
Distance from station: NW 53km
aktuell: 30.04.2014 18:20
NOT Current
sehr leichter Niederschlag, geschlossene Wolkendecke
sehr leichter Niederschlag, geschlossene Wolkendecke
 Wind von SSW
Wind: SSW 9 km/h
Temperatur: 10°C
gefühlte Temperatur: 9°C
Taupunkt: 10°C
Luftfeuchte: 100%
Luftdruck: 1011 hPa
Zusammenfassung: sehr leichter Niederschlag
Clouds: geschlossene Wolkendecke
Visibility: 9 km
Cloud details: stark bewölkt 213 m
geschlossene Wolkendecke 335 m
2014/04/30 16:20 EDTD 301620Z 20005KT 9000 -RA BKN007 OVC011 10/10 Q1011 LAST ?
ETGZ - Messstetten, Germany
Distance from station: N 54km
aktuell: 30.09.2013 14:20
NOT Current
geschlossene Wolkendecke
geschlossene Wolkendecke
 Wind von varies
Wind: varies 4 km/h
Temperatur: 8°C
Taupunkt: 7°C
Luftfeuchte: 93%
Luftdruck: 1007 hPa
Clouds: geschlossene Wolkendecke
Visibility: 10 km
Cloud details: geschlossene Wolkendecke 213 m
2013/09/30 12:20 ETGZ 301220Z VRB02KT 9999 OVC007 08/07 Q1007 GRN
LOIH - Hohenems-Dornbir, Austria
Distance from station: SO 57km
aktuell: 03.08.2015 14:00
Few Clouds
Few Clouds
 Wind von N
Wind: N 7 km/h
Temperatur: 28°C
Heat Index: 28°C
Taupunkt: 17°C
Luftfeuchte: 51%
Luftdruck: 1018 hPa
Clouds: Few Clouds
Cloud details: Few Clouds 1524 m
2015/08/03 12:00 LOIH 031200Z 36004KT 35KM FEW050CU 28/17 Q1018 RMK FEW
 
ETHL - Laupheim (ger-Ar, Germany
Distance from station: NO 84km
aktuell: 03.08.2015 14:20
Few Clouds
Few Clouds
 Wind von SW
Wind: SW 9 km/h
Temperatur: 27°C
Heat Index: 27°C
Taupunkt: 15°C
Luftfeuchte: 48%
Luftdruck: 1019 hPa
Clouds: Few Clouds
Visibility: 10 km
Cloud details: Few Clouds 1524 m
2015/08/03 12:20 ETHL 031220Z 23005KT 9999 FEW050 27/15 Q1019 BLU+
EDJA - Memmingen Allgau, Germany
Distance from station: ONO 90km
aktuell: 03.08.2015 14:50
klar
klar
 Wind von SW
Wind: SW 15 km/h
Temperatur: 27°C
Heat Index: 27°C
Taupunkt: 13°C
Luftfeuchte: 42%
Luftdruck: 1019 hPa
Zusammenfassung: klar
Visibility: greater than 10 km
2015/08/03 12:50 EDJA 031250Z 23008KT 200V290 CAVOK 27/13 Q1019
LSME - Emmen, Switzerland
Distance from station: SW 90km
aktuell: 03.08.2015 14:50
klar
klar
 Wind von varies
Wind: varies 4 km/h
Temperatur: 29°C
Heat Index: 29°C
Taupunkt: 16°C
Luftfeuchte: 45%
Luftdruck: 1018 hPa
Zusammenfassung: klar
Visibility: greater than 10 km
2015/08/03 12:50 LSME 031250Z VRB02KT CAVOK 29/16 Q1018 RMK BLU
 
LSZC - Buochs, Switzerland
Distance from station: SSW 98km
aktuell: 03.08.2015 14:50
Few Clouds
Few Clouds
 Wind von O
Wind: O 13 km/h
Temperatur: 29°C
Heat Index: 29°C
Taupunkt: 17°C
Luftfeuchte: 48%
Luftdruck: 1018 hPa
Clouds: Few Clouds
Visibility: 10 km
Cloud details: Few Clouds 1829 m
2015/08/03 12:50 LSZC 031250Z 08007KT 350V150 9999 FEW060 29/17 Q1018